メインページ
METAR-TAF:

METAR-TAF

空港 :

大分空港

大分, 日本

緯度: 33-29N, 経度: 131-44E, 海抜: 5m

現時点の気象観測

当レポートは22分前の07:00(UTC)に作成
の風 5kt
気温 25°C
湿度 83%
気圧 1007 hPa
視程10km以上
高度2500ftの雲はほとんどない
高度3000ftの千切れ雲あり
高度5000ftの千切れ雲あり
弱いにわか雨

METAR: RJFO 200700Z 10005KT 9999 -SHRA FEW025 BKN030 BKN050 25/22 Q1007

時間: 16:22 (07:22 UTC)

予報

当レポートは2時間11分前の05:11(UTC)に作成
予報は20日の 06時(UTC)から 21日の 12時(UTC)まで有効
東/南東の風 4kt
視程10km以上
高度1500ftの雲はほとんどない
高度3500ftの千切れ雲あり
20日の 08時(UTC)から 20日の 10時(UTC)まで徐々に
北東の風 5kt
21日の 09時(UTC)から 21日の 12時(UTC)まで徐々に
南/南東の風 4kt

TAF: RJFO 200511Z 2006/2112 11004KT 9999 FEW015 BKN035 BECMG 2008/2010 04005KT BECMG 2109/2112 16004KT

4,000以上の空港の気象観測と天気予報(METAR報とTAF報)

利用可能な観測所は地図上に黄色い丸と赤い丸で示す。

丸の上にカーソルを重ねると観測所名を参照できる。

次にクリックすると気象観測と天気予報を参照できる。

マップの切り替え:黒色「×」印の緑ボタンをクリックして拡大、「-」印の緑ボタンをクリックして縮小、緑色の三角印をクリックして隣りの地図に切り替え


METAR-TAF: